This is the latest recevied weather packets stored in our database for station/object WA4IKQ. If no packets are shown the sender has not sent any weather packets the latest 10 day(s).
| Time | Temp. | Humidity | Pressure | Rain* | Wind** | Luminosity | Snow |
|---|---|---|---|---|---|---|---|
| 1777644902 | 27.22° C | 69% | 1012.3 hPa | 0 mm | 1.79 m/s, 170° | - | - |
| 1777644667 | 27.22° C | 70% | 1012.4 hPa | 0 mm | 1.34 m/s, 204° | - | - |
| 1777644324 | 27.22° C | 71% | 1012.4 hPa | 0 mm | 1.34 m/s, 221° | - | - |
| 1777644192 | 27.22° C | 71% | 1012.4 hPa | 0 mm | 1.34 m/s, 221° | - | - |
| 1777643476 | 26.67° C | 74% | 1012.6 hPa | 0 mm | 2.68 m/s, 308° | - | - |
| 1777643296 | 26.67° C | 74% | 1012.6 hPa | 0 mm | 2.68 m/s, 308° | - | - |
| 1777641948 | 25.56° C | 79% | 1012.6 hPa | 0 mm | 2.68 m/s, 205° | - | - |
| 1777641793 | 25.56° C | 79% | 1012.6 hPa | 0 mm | 2.68 m/s, 205° | - | - |
| 1777641790 | 25.56° C | 80% | 1012.6 hPa | 0 mm | 1.34 m/s, 204° | - | - |
| 1777640721 | 25° C | 82% | 1012.4 hPa | 0 mm | 1.34 m/s, 208° | - | - |
| 1777640590 | 25° C | 82% | 1012.4 hPa | 0 mm | 1.34 m/s, 208° | - | - |
| 1777638371 | 23.89° C | 86% | 1011.9 hPa | 0 mm | 1.79 m/s, 236° | - | - |
| 1777638189 | 23.89° C | 86% | 1011.9 hPa | 0 mm | 1.79 m/s, 236° | - | - |
| 1777636305 | 23.33° C | 87% | 1011.7 hPa | 0 mm | 1.79 m/s, 217° | - | - |
| 1777636074 | 23.33° C | 88% | 1011.6 hPa | 0 mm | 1.34 m/s, 208° | - | - |
| 1777635789 | 23.33° C | 88% | 1011.6 hPa | 0 mm | 1.34 m/s, 208° | - | - |
| 1777635501 | 23.33° C | 88% | 1011.6 hPa | 0 mm | 2.24 m/s, 160° | - | - |
| 1777635406 | 23.33° C | 88% | 1011.6 hPa | 0 mm | 0 m/s | - | - |
| 1777635190 | 23.33° C | 88% | 1011.6 hPa | 0 mm | 0 m/s | - | - |
| 1777634288 | 23.33° C | 88% | 1011.4 hPa | 0 mm | 0 m/s | - | - |
| 1777634176 | 23.33° C | 88% | 1011.3 hPa | 0 mm | 0.45 m/s, 165° | - | - |
| 1777633688 | 23.33° C | 88% | 1011.3 hPa | 0 mm | 1.79 m/s, 177° | - | - |
| 1777633589 | 23.33° C | 88% | 1011.2 hPa | 0 mm | 1.34 m/s, 217° | - | - |
| 1777633389 | 23.33° C | 88% | 1011.2 hPa | 0 mm | 1.34 m/s, 217° | - | - |
| 1777632490 | 23.33° C | 88% | 1011.1 hPa | 0 mm | 2.24 m/s, 197° | - | - |
* Rain latest hour (hover to see other rain measurements)
** Current wind speed in m/s (hover to see current wind gust speed)